createdAt,value
2018-04-25T00:00:55.799Z,48.07
2018-04-25T00:03:24.186Z,50.03
2018-04-25T00:05:52.553Z,46.27
2018-04-25T00:08:20.909Z,50.50
2018-04-25T00:10:49.255Z,56.00
2018-04-25T00:13:17.967Z,52.63
2018-04-25T00:15:46.411Z,51.97
2018-04-25T00:18:14.767Z,49.60
2018-04-25T00:20:43.130Z,51.77
2018-04-25T00:23:11.486Z,50.40
2018-04-25T00:25:39.845Z,52.47
2018-04-25T00:28:08.337Z,55.73
2018-04-25T00:30:36.670Z,51.30
2018-04-25T00:33:05.039Z,50.57
2018-04-25T00:35:33.400Z,55.10
2018-04-25T00:38:01.790Z,50.67
2018-04-25T00:40:30.134Z,53.40
2018-04-25T00:42:59.278Z,53.03
2018-04-25T00:45:27.703Z,51.43
2018-04-25T00:47:56.160Z,55.10
2018-04-25T00:50:24.511Z,52.80
2018-04-25T00:52:52.872Z,58.63
2018-04-25T00:55:22.049Z,54.23
2018-04-25T00:57:50.417Z,49.47
2018-04-25T01:00:19.575Z,49.33
2018-04-25T01:02:47.935Z,52.60
2018-04-25T01:05:16.302Z,54.17
2018-04-25T01:07:44.648Z,51.60
2018-04-25T01:10:13.000Z,52.07
2018-04-25T01:12:41.354Z,50.93
2018-04-25T01:15:10.002Z,49.37
2018-04-25T01:17:38.367Z,52.83
2018-04-25T01:20:07.613Z,52.53
2018-04-25T01:22:36.005Z,50.50
2018-04-25T01:25:06.928Z,57.43
2018-04-25T01:27:38.159Z,52.23
2018-04-25T01:30:06.522Z,51.23
2018-04-25T01:32:34.907Z,51.70
2018-04-25T01:35:04.026Z,49.80
2018-04-25T01:37:40.162Z,48.70
2018-04-25T01:40:09.273Z,47.43
2018-04-25T01:42:46.452Z,47.10
2018-04-25T01:45:40.084Z,47.27
2018-04-25T01:51:03.898Z,50.23
2018-04-25T01:53:44.271Z,48.23
2018-04-25T01:56:25.351Z,48.53
2018-04-25T01:59:06.424Z,48.83
2018-04-25T02:01:34.284Z,49.83
2018-04-25T02:04:02.732Z,49.03
2018-04-25T02:06:31.109Z,47.17
2018-04-25T02:08:59.571Z,50.93
2018-04-25T02:11:27.967Z,48.90
2018-04-25T02:13:56.320Z,47.03
2018-04-25T02:16:24.671Z,49.17
2018-04-25T02:18:53.824Z,43.07
2018-04-25T02:21:22.170Z,42.47
2018-04-25T02:23:50.531Z,46.80
2018-04-25T02:26:19.788Z,42.80
2018-04-25T02:28:48.156Z,40.73
2018-04-25T02:31:16.505Z,40.20
2018-04-25T02:33:44.948Z,39.27
2018-04-25T02:36:13.364Z,38.80
2018-04-25T02:38:41.716Z,40.03
2018-04-25T02:41:10.906Z,42.50
2018-04-25T02:43:39.489Z,43.00
2018-04-25T02:46:07.906Z,41.63
2018-04-25T02:48:36.268Z,43.57
2018-04-25T02:51:05.450Z,40.43
2018-04-25T02:53:33.940Z,39.97
2018-04-25T02:56:02.247Z,44.03
2018-04-25T02:58:30.816Z,41.00
2018-04-25T03:00:59.917Z,40.60
2018-04-25T03:03:29.119Z,44.67
2018-04-25T03:05:57.622Z,40.30
2018-04-25T03:08:26.118Z,35.53
2018-04-25T03:10:54.455Z,39.10
2018-04-25T03:13:23.597Z,34.63
2018-04-25T03:15:51.968Z,38.10
2018-04-25T03:18:20.434Z,36.87
2018-04-25T03:20:48.778Z,38.80
2018-04-25T03:23:17.918Z,33.53
2018-04-25T03:25:46.287Z,36.07
2018-04-25T03:28:14.681Z,33.97
2018-04-25T03:30:43.054Z,33.53
2018-04-25T03:33:12.347Z,36.43
2018-04-25T03:35:40.740Z,33.17
2018-04-25T03:38:09.246Z,31.80
2018-04-25T03:40:37.619Z,32.07
2018-04-25T03:43:05.977Z,31.17
2018-04-25T03:45:34.479Z,32.80
2018-04-25T03:48:02.838Z,31.43
2018-04-25T03:50:32.191Z,30.67
2018-04-25T03:53:00.553Z,32.53
2018-04-25T03:55:28.997Z,30.37
2018-04-25T03:57:57.473Z,30.13
2018-04-25T04:00:25.809Z,29.60
2018-04-25T04:02:54.163Z,26.87
2018-04-25T04:05:22.657Z,28.53
2018-04-25T04:07:51.030Z,28.33
2018-04-25T04:10:19.413Z,30.40
2018-04-25T04:12:47.864Z,27.93
2018-04-25T04:15:16.285Z,27.53
2018-04-25T04:17:44.688Z,25.27
2018-04-25T04:20:13.107Z,26.27
2018-04-25T04:22:41.471Z,27.93
2018-04-25T04:25:09.828Z,29.53
2018-04-25T04:27:38.955Z,21.13
2018-04-25T04:30:07.336Z,22.47
2018-04-25T04:32:35.746Z,23.07
2018-04-25T04:35:04.176Z,18.57
2018-04-25T04:37:32.623Z,23.40
2018-04-25T04:40:00.977Z,22.60
2018-04-25T04:42:29.352Z,19.53
2018-04-25T04:44:57.706Z,17.47
2018-04-25T04:47:26.176Z,21.17
2018-04-25T04:49:55.666Z,18.30
2018-04-25T04:52:24.906Z,20.53
2018-04-25T04:54:53.275Z,20.47
2018-04-25T04:57:21.643Z,19.57
2018-04-25T04:59:50.053Z,16.33
2018-04-25T05:02:18.436Z,18.27
2018-04-25T05:04:46.840Z,15.60
2018-04-25T05:07:15.347Z,17.20
2018-04-25T05:09:44.459Z,16.40
2018-04-25T05:12:12.869Z,13.17
2018-04-25T05:14:41.331Z,15.63
2018-04-25T05:17:09.727Z,15.63
2018-04-25T05:19:38.145Z,15.00
2018-04-25T05:22:06.498Z,12.87
2018-04-25T05:24:34.947Z,13.30
2018-04-25T05:27:03.218Z,14.97
2018-04-25T05:29:31.626Z,14.57
2018-04-25T05:31:59.962Z,18.10
2018-04-25T05:34:28.311Z,12.73
2018-04-25T05:36:57.570Z,12.03
2018-04-25T05:39:25.965Z,14.83
2018-04-25T05:41:54.446Z,15.97
2018-04-25T05:44:22.807Z,12.10
2018-04-25T05:46:51.153Z,13.23
2018-04-25T05:49:20.479Z,12.70
2018-04-25T05:51:48.919Z,17.70
2018-04-25T05:54:18.004Z,12.23
2018-04-25T05:56:46.456Z,11.07
2018-04-25T05:59:14.787Z,11.73
2018-04-25T06:01:43.216Z,14.27
2018-04-25T06:04:12.417Z,11.87
2018-04-25T06:06:40.771Z,11.97
2018-04-25T06:09:09.134Z,11.90
2018-04-25T06:11:38.240Z,11.97
2018-04-25T06:14:06.887Z,13.23
2018-04-25T06:16:35.253Z,10.57
2018-04-25T06:19:03.713Z,16.40
2018-04-25T06:21:32.079Z,11.07
2018-04-25T06:24:00.468Z,11.53
2018-04-25T06:26:28.875Z,12.27
2018-04-25T06:28:57.205Z,12.47
2018-04-25T06:31:25.616Z,13.47
2018-04-25T06:33:54.092Z,14.47
2018-04-25T06:36:23.292Z,11.83
2018-04-25T06:38:51.655Z,13.73
2018-04-25T06:41:20.677Z,16.90
2018-04-25T06:43:49.027Z,14.50
2018-04-25T06:46:17.406Z,15.50
2018-04-25T06:48:45.752Z,17.60
2018-04-25T06:51:14.889Z,14.80
2018-04-25T06:53:43.235Z,13.57
2018-04-25T06:56:12.381Z,15.50
2018-04-25T06:58:40.775Z,12.90
2018-04-25T07:01:09.233Z,14.50
2018-04-25T07:03:37.926Z,15.27
2018-04-25T07:06:06.267Z,16.87
2018-04-25T07:08:34.683Z,12.27
2018-04-25T07:11:03.026Z,10.87
2018-04-25T07:13:31.455Z,8.37
2018-04-25T07:15:59.793Z,10.73
2018-04-25T07:18:28.156Z,9.13
2018-04-25T07:20:56.604Z,10.80
2018-04-25T07:23:24.960Z,11.53
2018-04-25T07:25:53.308Z,8.47
2018-04-25T07:28:22.407Z,10.53
2018-04-25T07:30:50.837Z,9.97
2018-04-25T07:33:19.186Z,10.83
2018-04-25T07:35:47.780Z,9.60
2018-04-25T07:38:16.106Z,13.83
2018-04-25T07:40:44.451Z,17.73
2018-04-25T07:43:12.907Z,10.40
2018-04-25T07:45:41.308Z,12.00
2018-04-25T07:48:09.649Z,14.40
2018-04-25T07:50:38.167Z,20.03
2018-04-25T07:53:06.519Z,14.67
2018-04-25T07:55:34.875Z,12.40
2018-04-25T07:58:04.002Z,10.77
2018-04-25T08:00:33.305Z,12.80
2018-04-25T08:03:01.662Z,8.57
2018-04-25T08:05:29.994Z,6.83
2018-04-25T08:07:58.356Z,8.00
2018-04-25T08:10:26.714Z,8.60
2018-04-25T08:13:07.148Z,7.97
2018-04-25T08:15:48.207Z,9.97
2018-04-25T08:18:29.362Z,7.90
2018-04-25T08:24:02.543Z,6.00
2018-04-25T08:26:30.885Z,6.37
2018-04-25T08:29:00.009Z,5.13
2018-04-25T08:31:28.357Z,5.97
2018-04-25T08:33:56.766Z,4.17
2018-04-25T08:36:25.116Z,3.93
2018-04-25T08:38:53.560Z,4.10
2018-04-25T08:41:21.944Z,3.97
2018-04-25T08:43:50.311Z,3.50
2018-04-25T08:46:18.656Z,3.73
2018-04-25T08:48:47.005Z,3.50
2018-04-25T08:51:15.411Z,5.57
2018-04-25T08:53:44.584Z,3.63
2018-04-25T08:56:12.929Z,4.27
2018-04-25T08:58:41.253Z,3.43
2018-04-25T09:01:10.411Z,4.07
2018-04-25T09:03:38.737Z,4.63
2018-04-25T09:06:07.868Z,3.00
2018-04-25T09:08:36.212Z,2.90
2018-04-25T09:11:05.434Z,3.30
2018-04-25T09:13:33.935Z,4.37
2018-04-25T09:16:02.298Z,5.67
2018-04-25T09:18:30.669Z,3.20
2018-04-25T09:20:59.010Z,3.37
2018-04-25T09:23:27.353Z,2.70
2018-04-25T09:25:55.696Z,3.23
2018-04-25T09:28:24.097Z,2.83
2018-04-25T09:30:53.163Z,5.63
2018-04-25T09:33:22.276Z,4.37
2018-04-25T09:35:50.614Z,5.30
2018-04-25T09:38:18.979Z,4.73
2018-04-25T09:40:47.323Z,6.50
2018-04-25T09:43:15.666Z,6.63
2018-04-25T09:45:44.933Z,5.30
2018-04-25T09:48:14.226Z,5.90
2018-04-25T09:50:42.574Z,7.97
2018-04-25T09:53:10.965Z,6.80
2018-04-25T09:55:39.306Z,6.30
2018-04-25T09:58:08.491Z,5.93
2018-04-25T10:00:42.643Z,5.70
2018-04-25T10:03:16.982Z,5.03
2018-04-25T10:05:45.320Z,5.67
2018-04-25T10:08:14.424Z,5.43
2018-04-25T10:10:43.558Z,5.53
2018-04-25T10:13:11.932Z,5.83
2018-04-25T10:15:40.252Z,6.83
2018-04-25T10:18:08.683Z,3.47
2018-04-25T10:20:37.118Z,7.53
2018-04-25T10:23:05.548Z,4.77
2018-04-25T10:25:34.046Z,2.87
2018-04-25T10:28:02.345Z,3.70
2018-04-25T10:30:30.700Z,3.87
2018-04-25T10:32:59.072Z,2.27
2018-04-25T10:35:27.518Z,3.97
2018-04-25T10:37:55.947Z,5.00
2018-04-25T10:40:24.345Z,1.50
2018-04-25T10:42:52.939Z,6.27
2018-04-25T10:45:21.308Z,2.57
2018-04-25T10:47:49.648Z,4.17
2018-04-25T10:50:18.001Z,4.73
2018-04-25T10:52:46.503Z,3.97
2018-04-25T10:55:14.910Z,4.17
2018-04-25T10:57:44.001Z,2.63
2018-04-25T11:00:12.355Z,9.10
2018-04-25T11:02:41.031Z,3.10
2018-04-25T11:05:09.440Z,2.70
2018-04-25T11:07:37.811Z,3.00
2018-04-25T11:10:06.260Z,4.80
2018-04-25T11:12:34.616Z,5.97
2018-04-25T11:15:03.052Z,3.00
2018-04-25T11:17:31.487Z,2.20
2018-04-25T11:20:01.230Z,9.03
2018-04-25T11:22:29.584Z,4.83
2018-04-25T11:24:58.815Z,3.50
2018-04-25T11:27:27.163Z,2.50
2018-04-25T11:29:56.279Z,2.70
2018-04-25T11:32:24.637Z,2.23
2018-04-25T11:34:53.768Z,2.97
2018-04-25T11:37:22.126Z,2.27
2018-04-25T11:39:50.482Z,3.83
2018-04-25T11:42:19.636Z,2.27
2018-04-25T11:44:48.030Z,2.83
2018-04-25T11:47:16.411Z,3.50
2018-04-25T11:49:46.179Z,3.43
2018-04-25T11:52:15.317Z,2.80
2018-04-25T11:54:43.771Z,2.97
2018-04-25T11:57:12.163Z,3.57
2018-04-25T11:59:40.695Z,2.70
2018-04-25T12:02:08.990Z,5.33
2018-04-25T12:04:37.406Z,4.20
2018-04-25T12:07:05.800Z,3.43
2018-04-25T12:09:37.087Z,2.07
2018-04-25T12:12:06.191Z,3.00
2018-04-25T12:14:35.321Z,4.43
2018-04-25T12:17:03.679Z,2.37
2018-04-25T12:19:32.891Z,3.03
2018-04-25T12:22:01.223Z,4.80
2018-04-25T12:24:29.567Z,3.60
2018-04-25T12:26:58.032Z,3.43
2018-04-25T12:29:26.376Z,2.37
2018-04-25T12:31:55.521Z,3.77
2018-04-25T12:34:25.580Z,3.57
2018-04-25T12:36:54.706Z,2.00
2018-04-25T12:39:23.092Z,2.50
2018-04-25T12:41:51.463Z,3.47
2018-04-25T12:44:20.591Z,2.90
2018-04-25T12:46:48.963Z,2.43
2018-04-25T12:49:17.426Z,1.97
2018-04-25T12:51:45.875Z,3.83
2018-04-25T12:54:15.023Z,2.40
2018-04-25T12:56:43.393Z,2.73
2018-04-25T12:59:11.749Z,2.80
2018-04-25T13:01:40.147Z,1.57
2018-04-25T13:04:08.454Z,4.50
2018-04-25T13:06:36.794Z,3.20
2018-04-25T13:09:05.210Z,2.17
2018-04-25T13:11:33.555Z,2.43
2018-04-25T13:14:02.612Z,5.90
2018-04-25T13:16:30.983Z,3.00
2018-04-25T13:18:59.434Z,4.00
2018-04-25T13:21:27.850Z,2.97
2018-04-25T13:23:56.135Z,2.60
2018-04-25T13:26:24.534Z,2.13
2018-04-25T13:28:53.742Z,2.87
2018-04-25T13:31:22.024Z,2.53
2018-04-25T13:33:50.426Z,4.90
2018-04-25T13:36:18.766Z,2.37
2018-04-25T13:38:48.703Z,2.60
2018-04-25T13:41:17.203Z,3.20
2018-04-25T13:43:45.608Z,4.07
2018-04-25T13:46:14.136Z,3.73
2018-04-25T13:48:43.252Z,2.43
2018-04-25T13:51:11.591Z,3.93
2018-04-25T13:53:40.736Z,5.43
2018-04-25T13:56:09.248Z,5.60
2018-04-25T13:58:37.596Z,3.17
2018-04-25T14:01:05.948Z,2.50
2018-04-25T14:03:34.348Z,2.87
2018-04-25T14:06:02.722Z,2.33
2018-04-25T14:08:31.087Z,3.00
2018-04-25T14:10:59.443Z,2.33
2018-04-25T14:13:27.958Z,4.63
2018-04-25T14:15:56.308Z,4.53
2018-04-25T14:18:25.453Z,2.77
2018-04-25T14:20:53.783Z,4.73
2018-04-25T14:23:22.903Z,3.03
2018-04-25T14:25:51.305Z,3.97
2018-04-25T14:28:19.687Z,5.03
2018-04-25T14:30:48.064Z,3.87
2018-04-25T14:33:16.495Z,4.03
2018-04-25T14:35:44.854Z,5.23
2018-04-25T14:38:13.201Z,3.43
2018-04-25T14:40:41.564Z,4.57
2018-04-25T14:43:09.912Z,6.33
2018-04-25T14:45:39.030Z,3.27
2018-04-25T14:48:08.594Z,3.37
2018-04-25T14:50:37.054Z,3.67
2018-04-25T14:53:05.530Z,3.60
2018-04-25T14:55:33.958Z,5.33
2018-04-25T14:58:02.224Z,5.43
2018-04-25T15:00:30.584Z,6.33
2018-04-25T15:02:59.087Z,3.80
2018-04-25T15:05:27.436Z,3.60
2018-04-25T15:07:55.951Z,3.63
2018-04-25T15:10:24.387Z,4.43
2018-04-25T15:12:52.749Z,3.57
2018-04-25T15:15:21.115Z,5.50
2018-04-25T15:17:51.656Z,5.17
2018-04-25T15:20:20.167Z,3.03
2018-04-25T15:22:48.547Z,3.07
2018-04-25T15:25:16.960Z,3.90
2018-04-25T15:27:45.398Z,3.33
2018-04-25T15:30:13.867Z,2.73
2018-04-25T15:32:42.250Z,3.63
2018-04-25T15:35:10.602Z,2.77
2018-04-25T15:37:39.710Z,3.40
2018-04-25T15:40:08.071Z,4.27
2018-04-25T15:42:37.276Z,4.47
2018-04-25T15:45:06.409Z,5.73
2018-04-25T15:47:35.760Z,4.57
2018-04-25T15:50:04.073Z,5.73
2018-04-25T15:52:32.539Z,4.10
2018-04-25T15:55:00.903Z,6.03
2018-04-25T15:57:30.046Z,3.93
2018-04-25T15:59:58.447Z,6.63
2018-04-25T16:02:26.799Z,6.17
2018-04-25T16:04:55.339Z,3.07
2018-04-25T16:07:23.685Z,3.80
2018-04-25T16:09:52.033Z,4.03
2018-04-25T16:12:20.435Z,6.03
2018-04-25T16:14:49.495Z,3.70
2018-04-25T16:17:18.523Z,3.60
2018-04-25T16:19:46.908Z,4.03
2018-04-25T16:22:15.246Z,4.67
2018-04-25T16:24:43.723Z,4.83
2018-04-25T16:27:12.531Z,4.63
2018-04-25T16:29:41.083Z,3.93
2018-04-25T16:32:09.411Z,5.40
2018-04-25T16:34:37.745Z,5.53
2018-04-25T16:37:06.961Z,5.00
2018-04-25T16:39:37.942Z,4.47
2018-04-25T16:42:06.281Z,5.83
2018-04-25T16:44:34.710Z,6.30
2018-04-25T16:47:03.854Z,4.40
2018-04-25T16:49:32.257Z,5.10
2018-04-25T16:52:00.653Z,5.83
2018-04-25T16:54:29.024Z,4.70
2018-04-25T16:56:57.520Z,6.47
2018-04-25T16:59:25.857Z,4.93
2018-04-25T17:01:54.186Z,5.40
2018-04-25T17:04:22.632Z,5.07
2018-04-25T17:06:51.053Z,4.80
2018-04-25T17:09:19.439Z,4.93
2018-04-25T17:11:47.804Z,5.80
2018-04-25T17:14:16.196Z,6.60
2018-04-25T17:16:45.028Z,6.73
2018-04-25T17:19:13.603Z,13.00
2018-04-25T17:21:42.839Z,4.50
2018-04-25T17:24:11.352Z,5.20
2018-04-25T17:26:39.794Z,4.60
2018-04-25T17:29:08.231Z,6.53
2018-04-25T17:31:37.361Z,5.17
2018-04-25T17:34:05.704Z,4.67
2018-04-25T17:36:34.850Z,7.00
2018-04-25T17:39:03.212Z,6.23
2018-04-25T17:41:31.598Z,5.57
2018-04-25T17:44:00.012Z,5.87
2018-04-25T17:46:28.387Z,7.67
2018-04-25T17:48:56.866Z,8.23
2018-04-25T17:51:25.340Z,6.80
2018-04-25T17:53:53.790Z,6.20
2018-04-25T17:56:22.173Z,6.93
2018-04-25T17:58:50.511Z,9.70
2018-04-25T18:01:18.893Z,6.77
2018-04-25T18:03:47.243Z,6.63
2018-04-25T18:06:15.675Z,6.57
2018-04-25T18:08:47.269Z,5.73
2018-04-25T18:11:15.743Z,6.50
2018-04-25T18:13:44.116Z,9.40
2018-04-25T18:16:13.247Z,4.73
2018-04-25T18:18:41.636Z,6.00
2018-04-25T18:21:10.005Z,5.97
2018-04-25T18:23:38.367Z,8.17
2018-04-25T18:26:06.710Z,7.23
2018-04-25T18:28:35.113Z,8.37
2018-04-25T18:31:03.531Z,9.00
2018-04-25T18:33:31.922Z,9.87
2018-04-25T18:36:01.033Z,8.43
2018-04-25T18:38:30.629Z,10.93
2018-04-25T18:40:59.762Z,8.23
2018-04-25T18:43:28.167Z,8.50
2018-04-25T18:45:56.556Z,6.10
2018-04-25T18:48:24.956Z,8.03
2018-04-25T18:50:53.295Z,6.03
2018-04-25T18:53:21.668Z,7.07
2018-04-25T18:55:50.056Z,5.80
2018-04-25T18:58:18.391Z,8.17
2018-04-25T19:00:47.519Z,9.57
2018-04-25T19:03:16.016Z,7.63
2018-04-25T19:05:44.450Z,6.83
2018-04-25T19:08:13.581Z,7.13
2018-04-25T19:10:41.987Z,8.23
2018-04-25T19:13:10.319Z,6.80
2018-04-25T19:15:38.699Z,7.90
2018-04-25T19:18:07.044Z,8.23
2018-04-25T19:20:35.428Z,8.20
2018-04-25T19:23:04.083Z,8.53
2018-04-25T19:25:32.441Z,10.93
2018-04-25T19:28:00.823Z,8.53
2018-04-25T19:30:29.180Z,9.83
2018-04-25T19:32:57.518Z,6.13
2018-04-25T19:35:27.193Z,9.17
2018-04-25T19:37:56.003Z,7.37
2018-04-25T19:40:24.357Z,8.13
2018-04-25T19:42:52.754Z,7.00
2018-04-25T19:45:21.106Z,8.23
2018-04-25T19:47:49.461Z,6.77
2018-04-25T19:50:18.631Z,8.50
2018-04-25T19:52:47.013Z,13.43
2018-04-25T19:55:15.378Z,9.20
2018-04-25T19:57:43.706Z,8.47
2018-04-25T20:00:12.043Z,9.00
2018-04-25T20:02:40.384Z,7.03
2018-04-25T20:05:08.718Z,9.23
2018-04-25T20:07:37.055Z,7.57
2018-04-25T20:10:05.405Z,8.80
2018-04-25T20:12:33.835Z,8.27
2018-04-25T20:15:02.291Z,9.80
2018-04-25T20:17:30.607Z,7.77
2018-04-25T20:19:58.984Z,8.20
2018-04-25T20:22:27.302Z,8.43
2018-04-25T20:24:55.642Z,7.33
2018-04-25T20:27:24.074Z,6.20
2018-04-25T20:29:52.402Z,10.13
2018-04-25T20:32:20.764Z,8.07
2018-04-25T20:34:49.108Z,9.07
2018-04-25T20:37:17.451Z,10.50
2018-04-25T20:39:45.794Z,8.80
2018-04-25T20:42:14.207Z,8.20
2018-04-25T20:44:43.311Z,9.30
2018-04-25T20:47:11.900Z,10.07
2018-04-25T20:49:41.023Z,8.77
2018-04-25T20:52:09.430Z,6.83
2018-04-25T20:54:37.854Z,7.57
2018-04-25T20:57:06.947Z,7.77
2018-04-25T20:59:36.084Z,9.33
2018-04-25T21:02:04.451Z,9.87
2018-04-25T21:04:32.815Z,10.27
2018-04-25T21:07:01.999Z,8.30
2018-04-25T21:09:30.362Z,8.47
2018-04-25T21:11:58.786Z,10.20
2018-04-25T21:14:27.127Z,8.03
2018-04-25T21:16:56.282Z,11.00
2018-04-25T21:19:24.754Z,11.10
2018-04-25T21:21:53.233Z,11.77
2018-04-25T21:24:21.644Z,8.77
2018-04-25T21:26:50.012Z,12.17
2018-04-25T21:29:18.364Z,9.00
2018-04-25T21:31:46.729Z,8.97
2018-04-25T21:34:15.116Z,8.63
2018-04-25T21:36:43.469Z,8.50
2018-04-25T21:39:12.593Z,12.13
2018-04-25T21:41:40.933Z,10.53
2018-04-25T21:44:09.283Z,8.97
2018-04-25T21:46:37.644Z,9.07
2018-04-25T21:49:06.012Z,8.63
2018-04-25T21:54:09.151Z,12.73
2018-04-25T21:56:37.557Z,9.87
2018-04-25T21:59:06.309Z,10.57
2018-04-25T22:01:34.689Z,10.17
2018-04-25T22:04:04.137Z,7.67
2018-04-25T22:06:33.252Z,11.07
2018-04-25T22:09:02.891Z,8.37
2018-04-25T22:11:31.551Z,9.23
2018-04-25T22:13:59.924Z,8.67
2018-04-25T22:16:29.024Z,9.97
2018-04-25T22:18:58.323Z,8.00
2018-04-25T22:21:27.757Z,8.37
2018-04-25T22:23:56.372Z,9.97
2018-04-25T22:26:25.497Z,9.57
2018-04-25T22:28:53.911Z,8.97
2018-04-25T22:31:22.452Z,8.73
2018-04-25T22:33:50.807Z,10.43
2018-04-25T22:36:20.012Z,9.77
2018-04-25T22:38:48.350Z,9.50
2018-04-25T22:41:16.753Z,9.13
2018-04-25T22:43:46.085Z,8.77
2018-04-25T22:46:14.549Z,10.10
2018-04-25T22:48:42.988Z,9.40
2018-04-25T22:51:11.373Z,11.07
2018-04-25T22:53:40.079Z,10.67
2018-04-25T22:56:08.596Z,8.93
2018-04-25T22:58:36.930Z,9.77
2018-04-25T23:01:05.344Z,10.37
2018-04-25T23:03:33.693Z,10.07
2018-04-25T23:06:02.062Z,10.67
2018-04-25T23:08:30.406Z,8.10
2018-04-25T23:10:59.535Z,10.60
2018-04-25T23:13:27.930Z,8.90
2018-04-25T23:15:56.282Z,10.67
2018-04-25T23:18:24.707Z,10.03
2018-04-25T23:20:53.042Z,11.00
2018-04-25T23:23:21.414Z,11.33
2018-04-25T23:25:49.797Z,11.33
2018-04-25T23:28:18.142Z,13.17
2018-04-25T23:30:46.490Z,10.97
2018-04-25T23:33:14.866Z,11.93
2018-04-25T23:35:43.189Z,13.13
2018-04-25T23:38:12.302Z,12.73
2018-04-25T23:40:40.716Z,12.07
2018-04-25T23:43:09.195Z,12.17
2018-04-25T23:45:37.551Z,12.67
2018-04-25T23:48:05.892Z,15.03
2018-04-25T23:50:34.257Z,12.13
2018-04-25T23:53:02.630Z,11.37
2018-04-25T23:55:30.969Z,11.70
2018-04-25T23:57:59.313Z,11.60
